Time;durP1;ratioP1;P1;durP2;ratioP2;P2;SDS_P1;SDS_P2;PMS_P1;PMS_P2;Temp;Humidity;BMP_temperature;BMP_pressure;BME280_temperature;BME280_humidity;BME280_pressure;Samples;Min_cycle;Max_cycle;Signal;HPM_P1;HPM_P2
2022/10/01 00:02:05;;;;;;;1.77;1.58;;;13.60;99.90;;;;;;5005139;28;20171;-72
2022/10/01 00:04:31;;;;;;;2.25;1.65;;;13.60;99.90;;;;;;5008767;28;20226;-72
2022/10/01 00:06:59;;;;;;;2.53;1.63;;;13.60;99.90;;;;;;4990597;28;20176;-69
2022/10/01 00:09:25;;;;;;;2.50;1.70;;;13.60;99.90;;;;;;4980139;28;20227;-72
2022/10/01 00:11:53;;;;;;;3.25;1.73;;;13.60;99.90;;;;;;4980958;28;20181;-72
2022/10/01 00:14:19;;;;;;;2.15;1.50;;;13.60;99.90;;;;;;4997572;28;20203;-72
2022/10/01 00:16:49;;;;;;;1.98;1.58;;;13.60;99.90;;;;;;5001372;28;20203;-72
2022/10/01 00:19:17;;;;;;;2.53;1.63;;;13.60;99.90;;;;;;5001092;28;20255;-75
2022/10/01 00:21:43;;;;;;;2.63;1.80;;;13.70;99.90;;;;;;5008429;28;20271;-73
2022/10/01 00:24:11;;;;;;;2.40;1.75;;;13.70;99.90;;;;;;5002742;28;20223;-76
2022/10/01 00:26:40;;;;;;;2.30;1.85;;;13.70;99.90;;;;;;4998595;28;20199;-76
2022/10/01 00:29:10;;;;;;;2.25;1.80;;;13.80;99.90;;;;;;4999915;28;20246;-73
2022/10/01 00:31:35;;;;;;;2.67;1.80;;;13.90;99.90;;;;;;5005484;28;20176;-75
2022/10/01 00:34:02;;;;;;;4.10;1.92;;;13.90;99.90;;;;;;5002541;28;20172;-74
2022/10/01 00:36:31;;;;;;;2.08;1.88;;;14.00;99.90;;;;;;5004265;28;20199;-75
2022/10/01 00:38:59;;;;;;;2.60;2.00;;;14.10;99.90;;;;;;5009577;28;20202;-76
2022/10/01 00:41:33;;;;;;;3.15;1.88;;;14.20;99.90;;;;;;5006476;28;20181;-74
2022/10/01 00:44:01;;;;;;;5.40;1.50;;;14.30;99.90;;;;;;4999870;28;20160;-74
2022/10/01 00:46:39;;;;;;;2.97;2.03;;;14.40;99.90;;;;;;5017736;28;20207;-71
2022/10/01 00:49:12;;;;;;;2.47;2.00;;;14.50;99.90;;;;;;4990377;28;20210;-74
2022/10/01 00:51:48;;;;;;;1.67;1.55;;;14.60;99.90;;;;;;4983085;28;20183;-75
2022/10/01 00:54:23;;;;;;;2.28;1.65;;;14.60;99.90;;;;;;4982812;28;20231;-75
2022/10/01 00:56:52;;;;;;;2.10;1.50;;;14.60;99.90;;;;;;4990490;28;20206;-73
2022/10/01 00:59:18;;;;;;;2.55;1.40;;;14.60;99.90;;;;;;5000696;28;20175;-75
2022/10/01 01:01:45;;;;;;;1.80;1.45;;;14.60;99.90;;;;;;5004868;28;20289;-72
2022/10/01 01:04:17;;;;;;;1.90;1.50;;;14.60;99.90;;;;;;5005387;28;20215;-75
2022/10/01 01:07:03;;;;;;;2.13;1.50;;;14.60;99.90;;;;;;4999509;28;20206;-75
2022/10/01 01:09:34;;;;;;;3.15;1.75;;;14.50;99.90;;;;;;4999001;28;20179;-75
2022/10/01 01:12:27;;;;;;;2.17;1.80;;;14.50;99.90;;;;;;4994737;28;20222;-74
2022/10/01 01:15:22;;;;;;;1.60;1.35;;;14.40;99.90;;;;;;4998420;28;20195;-72
2022/10/01 01:18:03;;;;;;;3.03;1.60;;;14.20;99.90;;;;;;4980030;28;20247;-73
2022/10/01 01:20:59;;;;;;;2.13;1.70;;;14.10;99.90;;;;;;4996544;28;20231;-74
2022/10/01 01:23:49;;;;;;;2.30;1.60;;;14.00;99.90;;;;;;4995252;28;20168;-74
2022/10/01 01:26:28;;;;;;;2.13;1.63;;;13.90;99.90;;;;;;4998254;28;20196;-73
2022/10/01 01:29:01;;;;;;;1.70;1.60;;;13.70;99.90;;;;;;5005968;28;20171;-73
2022/10/01 01:31:34;;;;;;;3.20;1.60;;;13.60;99.90;;;;;;5004625;28;20203;-75
2022/10/01 01:34:07;;;;;;;1.85;1.42;;;13.60;99.90;;;;;;4999954;28;20180;-73
2022/10/01 01:36:39;;;;;;;1.38;1.27;;;13.50;99.90;;;;;;4998141;28;20214;-74
2022/10/01 01:39:08;;;;;;;1.83;1.48;;;13.40;99.90;;;;;;5003254;28;20263;-74
2022/10/01 01:41:39;;;;;;;3.45;1.63;;;13.30;99.90;;;;;;4999596;28;20309;-74
2022/10/01 01:44:09;;;;;;;2.20;1.88;;;13.30;99.90;;;;;;4997558;28;20175;-74
2022/10/01 01:46:41;;;;;;;1.98;1.67;;;13.20;99.90;;;;;;4997885;28;20191;-72
2022/10/01 01:49:09;;;;;;;1.75;1.52;;;13.10;99.90;;;;;;5000364;28;20195;-73
2022/10/01 01:52:00;;;;;;;2.33;1.70;;;13.00;99.90;;;;;;4999067;28;20175;-73
2022/10/01 01:54:29;;;;;;;2.72;1.50;;;12.90;99.90;;;;;;5003615;28;20171;-74
2022/10/01 01:57:00;;;;;;;2.10;1.52;;;12.90;99.90;;;;;;5002489;28;20195;-74
2022/10/01 01:59:26;;;;;;;3.17;2.03;;;12.80;99.90;;;;;;4998273;28;20167;-74
2022/10/01 02:01:52;;;;;;;1.70;1.60;;;12.70;99.90;;;;;;4998130;28;20187;-72
2022/10/01 02:04:23;;;;;;;2.88;1.58;;;12.70;99.90;;;;;;4996502;28;20188;-72
2022/10/01 02:07:00;;;;;;;1.52;1.38;;;12.70;99.90;;;;;;4979206;28;20179;-76
2022/10/01 02:09:31;;;;;;;2.47;1.50;;;12.60;99.90;;;;;;4977681;28;20287;-73
2022/10/01 02:12:38;;;;;;;2.03;1.40;;;12.60;99.90;;;;;;4996581;28;20180;-74
2022/10/01 02:15:26;;;;;;;1.63;1.50;;;12.60;99.90;;;;;;4971103;28;20188;-74
2022/10/01 02:18:07;;;;;;;1.80;1.45;;;12.50;99.90;;;;;;4993933;28;20258;-74
2022/10/01 02:20:44;;;;;;;2.03;1.60;;;12.50;99.90;;;;;;4980440;28;20160;-73
2022/10/01 02:23:27;;;;;;;1.95;1.70;;;12.50;99.90;;;;;;4994507;28;20176;-74
2022/10/01 02:26:02;;;;;;;2.65;1.70;;;12.40;99.90;;;;;;4993558;28;20262;-75
2022/10/01 02:28:31;;;;;;;3.35;1.52;;;12.40;99.90;;;;;;4995822;28;20283;-72
2022/10/01 02:31:02;;;;;;;2.78;1.80;;;12.40;99.90;;;;;;4995015;28;20281;-71
2022/10/01 02:33:32;;;;;;;2.47;1.90;;;12.40;99.90;;;;;;4998437;28;20176;-74
2022/10/01 02:36:00;;;;;;;3.47;1.90;;;12.40;99.90;;;;;;4997827;28;20195;-73
2022/10/01 02:38:27;;;;;;;2.08;1.85;;;12.40;99.90;;;;;;4998332;28;20175;-73
2022/10/01 02:41:03;;;;;;;1.65;1.55;;;12.40;99.90;;;;;;4996579;28;20171;-74
2022/10/01 02:43:34;;;;;;;2.47;1.90;;;12.40;99.90;;;;;;4998342;28;20214;-73
2022/10/01 02:46:09;;;;;;;2.80;2.00;;;12.40;99.90;;;;;;4996412;28;20175;-73
2022/10/01 02:48:37;;;;;;;3.15;1.77;;;12.40;99.90;;;;;;4996352;28;20166;-72
2022/10/01 02:51:24;;;;;;;1.83;1.65;;;12.40;99.90;;;;;;4995650;28;20259;-74
2022/10/01 02:53:55;;;;;;;2.00;1.80;;;12.40;99.90;;;;;;4995880;28;20167;-73
2022/10/01 02:59:13;;;;;;;1.67;1.40;;;12.40;99.90;;;;;;5010227;28;20206;-73
2022/10/01 03:01:39;;;;;;;1.65;1.50;;;12.40;99.90;;;;;;5009623;28;20171;-73
2022/10/01 03:04:05;;;;;;;2.13;1.52;;;12.40;99.90;;;;;;5009287;28;20184;-72
2022/10/01 03:06:30;;;;;;;2.42;1.63;;;12.40;99.90;;;;;;5003732;28;20183;-74
2022/10/01 03:08:56;;;;;;;1.95;1.60;;;12.40;99.90;;;;;;5005735;28;20184;-73
2022/10/01 03:11:22;;;;;;;1.65;1.52;;;12.50;99.90;;;;;;5008058;28;20183;-72
2022/10/01 03:13:47;;;;;;;1.85;1.42;;;12.40;99.90;;;;;;4995301;28;20184;-74
2022/10/01 03:16:13;;;;;;;2.03;1.70;;;12.40;99.90;;;;;;4993941;28;20235;-74
2022/10/01 03:18:39;;;;;;;1.80;1.20;;;12.40;99.90;;;;;;4998218;28;20176;-75
2022/10/01 03:21:04;;;;;;;1.48;1.13;;;12.40;99.90;;;;;;4995909;28;20451;-72
2022/10/01 03:23:30;;;;;;;1.20;1.10;;;12.40;99.90;;;;;;4997152;28;20183;-75
2022/10/01 03:25:57;;;;;;;1.58;1.33;;;12.40;99.90;;;;;;4998258;28;20196;-74
2022/10/01 03:28:25;;;;;;;1.90;1.30;;;12.50;99.90;;;;;;5002013;28;20212;-71
2022/10/01 03:31:02;;;;;;;1.10;1.00;;;12.50;99.90;;;;;;4984683;28;20219;-73
2022/10/01 03:33:30;;;;;;;1.20;1.05;;;12.50;99.90;;;;;;4984739;28;20199;-72
2022/10/01 03:35:55;;;;;;;1.05;0.95;;;12.50;99.90;;;;;;4988407;28;20231;-72
2022/10/01 03:38:23;;;;;;;2.17;1.00;;;12.50;99.90;;;;;;5020822;28;20186;-73
2022/10/01 03:40:56;;;;;;;1.73;1.08;;;12.50;99.90;;;;;;5019872;28;20184;-73
2022/10/01 03:43:25;;;;;;;0.80;0.80;;;12.50;99.90;;;;;;5021819;28;20176;-73
2022/10/01 03:45:51;;;;;;;0.90;0.80;;;12.50;99.90;;;;;;5018764;28;20294;-73
2022/10/01 03:48:17;;;;;;;1.10;1.00;;;12.40;99.90;;;;;;5016822;28;20213;-73
2022/10/01 03:50:52;;;;;;;0.90;0.80;;;12.60;99.90;;;;;;5017257;28;20179;-74
2022/10/01 03:53:20;;;;;;;0.77;0.77;;;12.60;99.90;;;;;;5018104;28;20170;-74
2022/10/01 03:55:46;;;;;;;0.93;0.80;;;12.70;99.90;;;;;;5018606;28;20174;-74
2022/10/01 03:58:14;;;;;;;0.98;0.90;;;12.60;99.90;;;;;;5019737;28;20212;-74
2022/10/01 04:00:40;;;;;;;0.85;0.77;;;12.60;99.90;;;;;;5009729;28;20190;-72
2022/10/01 04:03:06;;;;;;;1.10;0.85;;;12.50;99.90;;;;;;5004203;28;20287;-73
2022/10/01 04:05:34;;;;;;;0.80;0.80;;;12.60;99.90;;;;;;4998737;28;20223;-74
2022/10/01 04:08:02;;;;;;;1.42;0.93;;;12.60;99.90;;;;;;5011102;28;20200;-74
2022/10/01 04:10:28;;;;;;;1.83;0.80;;;12.50;99.90;;;;;;4996556;28;20186;-75
2022/10/01 04:12:54;;;;;;;1.30;0.80;;;12.50;99.90;;;;;;4998271;28;20203;-74
2022/10/01 04:15:24;;;;;;;0.90;0.80;;;12.50;99.90;;;;;;4998340;28;20233;-77
2022/10/01 04:17:50;;;;;;;1.00;0.80;;;12.50;99.90;;;;;;4998234;28;20211;-74
2022/10/01 04:20:15;;;;;;;1.80;1.00;;;12.60;99.90;;;;;;4998806;28;20237;-75
2022/10/01 04:22:41;;;;;;;1.83;0.90;;;12.50;99.90;;;;;;4998076;28;20191;-75
2022/10/01 04:25:12;;;;;;;1.15;0.80;;;12.50;99.90;;;;;;4998026;28;20195;-73
2022/10/01 04:27:42;;;;;;;2.40;0.93;;;12.50;99.90;;;;;;4998124;28;20203;-72
2022/10/01 04:30:09;;;;;;;2.00;0.80;;;12.50;99.90;;;;;;4998061;28;20206;-72
2022/10/01 04:32:36;;;;;;;1.05;0.70;;;12.50;99.90;;;;;;4997883;28;20180;-75
2022/10/01 04:35:03;;;;;;;1.08;0.70;;;12.50;99.90;;;;;;5014031;28;20221;-72
2022/10/01 04:37:31;;;;;;;0.80;0.70;;;12.50;99.90;;;;;;5006379;28;20202;-74
2022/10/01 04:39:57;;;;;;;0.95;0.52;;;12.50;99.90;;;;;;4998245;28;20172;-74
2022/10/01 04:42:27;;;;;;;1.30;0.63;;;12.40;99.90;;;;;;4979215;28;20168;-73
2022/10/01 04:44:56;;;;;;;2.28;0.65;;;12.40;99.90;;;;;;4994891;28;20267;-73
2022/10/01 04:47:24;;;;;;;1.42;0.60;;;12.40;99.90;;;;;;4978458;28;20250;-73
2022/10/01 04:49:50;;;;;;;1.42;0.80;;;12.40;99.90;;;;;;4994324;28;20204;-74
2022/10/01 04:52:18;;;;;;;1.25;0.73;;;12.40;99.90;;;;;;4978015;28;20188;-74
2022/10/01 04:54:51;;;;;;;0.75;0.50;;;12.40;99.90;;;;;;4987743;28;20243;-74
2022/10/01 04:57:22;;;;;;;0.77;0.50;;;12.40;99.90;;;;;;4997505;28;20187;-74
2022/10/01 04:59:47;;;;;;;0.50;0.40;;;12.40;99.90;;;;;;4997177;28;20200;-73
2022/10/01 05:02:14;;;;;;;0.40;0.40;;;12.40;99.90;;;;;;4997327;28;20178;-74
2022/10/01 05:04:39;;;;;;;0.65;0.50;;;12.30;99.90;;;;;;4997486;28;20254;-74
2022/10/01 05:07:08;;;;;;;1.17;0.60;;;12.40;99.90;;;;;;4997236;28;20171;-73
2022/10/01 05:09:34;;;;;;;1.02;0.77;;;12.40;99.90;;;;;;4997808;28;20199;-74
2022/10/01 05:12:06;;;;;;;1.30;0.90;;;12.40;99.90;;;;;;4997530;28;20271;-74
2022/10/01 05:14:34;;;;;;;1.20;0.80;;;12.40;99.90;;;;;;4997981;28;20195;-74
2022/10/01 05:17:00;;;;;;;1.30;0.80;;;12.40;99.90;;;;;;4997555;28;20203;-73
2022/10/01 05:19:29;;;;;;;0.75;0.40;;;12.40;99.90;;;;;;4996654;28;20261;-74
2022/10/01 05:21:57;;;;;;;2.45;0.70;;;12.40;99.90;;;;;;4996696;28;20175;-73
2022/10/01 05:24:23;;;;;;;1.25;0.60;;;12.50;99.90;;;;;;4997198;28;20171;-74
2022/10/01 05:26:53;;;;;;;1.60;0.80;;;12.50;99.90;;;;;;4997218;28;20309;-74
2022/10/01 05:29:19;;;;;;;0.65;0.50;;;12.50;99.90;;;;;;4993805;28;20203;-74
2022/10/01 05:31:46;;;;;;;0.30;0.30;;;12.60;99.90;;;;;;4993877;28;20183;-74
2022/10/01 05:34:14;;;;;;;2.53;0.47;;;12.60;99.90;;;;;;4993927;28;20184;-75
2022/10/01 05:36:42;;;;;;;0.30;0.30;;;12.60;99.90;;;;;;4994409;28;20211;-77
2022/10/01 05:39:12;;;;;;;0.55;0.30;;;12.70;99.90;;;;;;4993993;28;20218;-74
2022/10/01 05:41:40;;;;;;;0.32;0.32;;;12.70;99.90;;;;;;4993958;28;20196;-75
2022/10/01 05:44:08;;;;;;;1.35;0.70;;;12.70;99.90;;;;;;4994007;28;20180;-74
2022/10/01 05:46:34;;;;;;;0.98;0.73;;;12.80;99.90;;;;;;4996406;28;20242;-76
2022/10/01 05:49:02;;;;;;;0.77;0.60;;;12.80;99.90;;;;;;4996574;28;20179;-76
2022/10/01 05:51:28;;;;;;;0.38;0.32;;;12.80;99.90;;;;;;4996456;28;20195;-76
2022/10/01 05:53:57;;;;;;;0.30;0.30;;;12.80;99.90;;;;;;4996670;28;20175;-76
2022/10/01 05:56:24;;;;;;;0.30;0.30;;;12.90;99.90;;;;;;4997870;28;20214;-71
2022/10/01 05:58:52;;;;;;;0.30;0.30;;;12.90;99.90;;;;;;5012107;28;20182;-74
2022/10/01 06:01:20;;;;;;;0.22;0.22;;;12.90;99.90;;;;;;4998766;28;20206;-75
2022/10/01 06:03:52;;;;;;;0.30;0.30;;;13.00;99.90;;;;;;4978028;28;20172;-75
2022/10/01 06:06:22;;;;;;;0.30;0.30;;;12.90;99.90;;;;;;4993283;28;20203;-74
2022/10/01 06:08:51;;;;;;;0.95;0.70;;;13.00;99.90;;;;;;4992716;28;20270;-74
2022/10/01 06:11:17;;;;;;;1.00;0.60;;;13.00;99.90;;;;;;4992434;28;20235;-76
2022/10/01 06:13:44;;;;;;;1.40;0.65;;;13.10;99.90;;;;;;4992936;28;20176;-76
2022/10/01 06:16:15;;;;;;;1.77;0.80;;;13.10;99.90;;;;;;4992328;28;20200;-76
2022/10/01 06:18:41;;;;;;;1.13;0.75;;;13.10;99.90;;;;;;4993848;28;20164;-77
2022/10/01 06:21:12;;;;;;;0.90;0.60;;;13.10;99.90;;;;;;4976348;28;20182;-77
2022/10/01 06:23:37;;;;;;;0.90;0.30;;;13.10;99.90;;;;;;4992958;28;20160;-76
2022/10/01 06:26:06;;;;;;;1.13;0.60;;;13.20;99.90;;;;;;4976948;28;20180;-75
2022/10/01 06:28:31;;;;;;;1.00;0.63;;;13.20;99.90;;;;;;4976383;28;20187;-76
2022/10/01 06:31:00;;;;;;;1.48;0.90;;;13.20;99.90;;;;;;4976078;28;20171;-76
2022/10/01 06:33:26;;;;;;;0.85;0.55;;;13.30;99.90;;;;;;4991776;28;20172;-78
2022/10/01 06:35:54;;;;;;;1.25;0.70;;;13.30;99.90;;;;;;4982226;28;20182;-76
2022/10/01 06:38:22;;;;;;;1.58;0.88;;;13.30;99.90;;;;;;5014884;28;20199;-74
2022/10/01 06:40:52;;;;;;;0.90;0.60;;;13.40;99.90;;;;;;5015099;28;20171;-76
2022/10/01 06:43:18;;;;;;;1.50;0.80;;;13.40;99.90;;;;;;5015218;28;20198;-76
2022/10/01 06:45:44;;;;;;;2.30;1.13;;;13.40;99.90;;;;;;5015014;28;20233;-75
2022/10/01 06:48:14;;;;;;;1.92;0.80;;;13.50;99.90;;;;;;5014843;28;20215;-75
2022/10/01 06:50:41;;;;;;;1.05;0.57;;;13.50;99.90;;;;;;5015353;28;20178;-74
2022/10/01 06:53:09;;;;;;;1.50;0.70;;;13.60;99.90;;;;;;5009753;28;20227;-76
2022/10/01 06:55:38;;;;;;;0.40;0.30;;;13.60;99.90;;;;;;4995505;28;20194;-75
2022/10/01 06:58:15;;;;;;;1.00;0.47;;;13.60;99.90;;;;;;4995120;28;20210;-75
2022/10/01 07:00:42;;;;;;;1.17;0.47;;;13.50;99.90;;;;;;4995197;28;20179;-75
2022/10/01 07:03:13;;;;;;;0.30;0.30;;;13.50;99.90;;;;;;4995537;28;20298;-75
2022/10/01 07:05:41;;;;;;;1.20;0.40;;;13.40;99.90;;;;;;4995475;28;20237;-75
2022/10/01 07:08:07;;;;;;;0.70;0.40;;;13.30;99.90;;;;;;4995532;28;20172;-76
2022/10/01 07:10:34;;;;;;;0.20;0.20;;;13.30;99.90;;;;;;4995357;28;20171;-77
2022/10/01 07:13:19;;;;;;;0.40;0.40;;;13.20;99.90;;;;;;4995043;28;20222;-75
2022/10/01 07:15:45;;;;;;;0.47;0.20;;;13.30;99.90;;;;;;4995207;28;20207;-75
2022/10/01 07:18:14;;;;;;;1.13;0.30;;;13.20;99.90;;;;;;5011999;28;20180;-73
2022/10/01 07:20:42;;;;;;;0.95;0.40;;;13.20;99.90;;;;;;4994919;28;20189;-75
2022/10/01 07:23:13;;;;;;;0.40;0.30;;;13.20;99.90;;;;;;4995202;28;20171;-74
2022/10/01 07:25:40;;;;;;;0.73;0.35;;;13.30;99.90;;;;;;4998302;28;20252;-75
2022/10/01 07:28:14;;;;;;;0.30;0.22;;;13.30;99.90;;;;;;5013598;28;20238;-71
2022/10/01 07:30:41;;;;;;;0.38;0.30;;;13.30;99.90;;;;;;4996711;28;20209;-74
2022/10/01 07:33:09;;;;;;;0.30;0.22;;;13.40;99.90;;;;;;5012969;28;20185;-74
2022/10/01 07:35:37;;;;;;;0.50;0.28;;;13.40;99.90;;;;;;5014590;28;20178;-74
2022/10/01 07:38:06;;;;;;;0.20;0.20;;;13.60;99.90;;;;;;5014977;28;20206;-75
2022/10/01 07:40:37;;;;;;;1.48;0.30;;;13.60;99.90;;;;;;5014679;28;20264;-74
2022/10/01 07:43:03;;;;;;;0.20;0.20;;;13.70;99.90;;;;;;5011468;28;20237;-75
2022/10/01 07:45:30;;;;;;;0.20;0.20;;;13.90;99.90;;;;;;4998201;28;20200;-72
2022/10/01 07:47:59;;;;;;;0.28;0.20;;;14.00;99.90;;;;;;4979114;28;20214;-75
2022/10/01 07:50:26;;;;;;;0.43;0.30;;;14.20;99.90;;;;;;4995911;28;20200;-76
2022/10/01 07:52:56;;;;;;;0.47;0.40;;;14.20;99.90;;;;;;4995456;28;20184;-74
2022/10/01 07:55:25;;;;;;;0.30;0.30;;;14.30;99.90;;;;;;4995784;28;20207;-74
2022/10/01 07:58:01;;;;;;;0.63;0.25;;;14.30;99.90;;;;;;4998737;28;20258;-76
2022/10/01 08:00:29;;;;;;;0.20;0.10;;;14.40;99.90;;;;;;4998292;28;20206;-75
2022/10/01 08:02:55;;;;;;;0.80;0.32;;;14.50;99.90;;;;;;4979616;28;20245;-74
2022/10/01 08:05:28;;;;;;;0.93;0.40;;;14.60;99.90;;;;;;4979015;28;20214;-75
2022/10/01 08:08:05;;;;;;;0.60;0.57;;;14.60;99.90;;;;;;4995638;28;20168;-75
2022/10/01 08:10:35;;;;;;;0.57;0.45;;;14.70;99.90;;;;;;4979177;28;20237;-77
2022/10/01 08:13:23;;;;;;;1.17;0.60;;;14.80;99.90;;;;;;4994990;28;20191;-76
2022/10/01 08:15:52;;;;;;;0.80;0.47;;;14.80;99.90;;;;;;4979189;28;20199;-74
2022/10/01 08:18:18;;;;;;;0.30;0.30;;;14.80;99.90;;;;;;4985406;28;20176;-73
2022/10/01 08:20:47;;;;;;;0.20;0.20;;;14.90;99.90;;;;;;4998554;28;20175;-76
2022/10/01 08:23:14;;;;;;;1.30;0.60;;;14.90;99.90;;;;;;4998403;28;20175;-75
2022/10/01 08:25:41;;;;;;;1.42;0.40;;;15.00;99.90;;;;;;4998180;28;20175;-73
2022/10/01 08:28:09;;;;;;;1.27;0.68;;;15.00;99.90;;;;;;4998003;28;20207;-76
2022/10/01 08:30:38;;;;;;;2.25;0.82;;;15.10;99.90;;;;;;4998116;28;20176;-75
2022/10/01 08:33:04;;;;;;;2.08;0.50;;;15.10;99.90;;;;;;4998126;28;20175;-71
2022/10/01 08:35:30;;;;;;;1.00;0.60;;;15.10;99.90;;;;;;5014690;28;20175;-75
2022/10/01 08:38:05;;;;;;;0.90;0.70;;;15.10;99.90;;;;;;4998319;28;20242;-76
2022/10/01 08:40:41;;;;;;;1.17;0.50;;;15.20;99.90;;;;;;4998156;28;20352;-75
2022/10/01 08:43:16;;;;;;;0.90;0.60;;;15.20;99.90;;;;;;4998404;28;20171;-76
2022/10/01 08:45:50;;;;;;;1.02;0.50;;;15.30;99.90;;;;;;5005018;28;20171;-64
2022/10/01 08:48:34;;;;;;;0.52;0.30;;;15.30;99.90;;;;;;5009052;28;20211;-74
2022/10/01 08:51:40;;;;;;;1.15;0.50;;;15.30;99.90;;;;;;4997887;28;20186;-73
2022/10/01 08:54:44;;;;;;;1.00;0.55;;;15.40;99.90;;;;;;4970372;28;20351;-75
2022/10/01 08:57:27;;;;;;;1.33;0.70;;;15.40;99.90;;;;;;4965211;28;20254;-75
2022/10/01 09:00:02;;;;;;;0.73;0.50;;;15.50;99.90;;;;;;4997774;28;20182;-74
2022/10/01 09:02:34;;;;;;;0.70;0.40;;;15.50;99.90;;;;;;4997473;28;20214;-75
2022/10/01 09:05:13;;;;;;;0.95;0.57;;;15.60;99.90;;;;;;4997657;28;20258;-75
2022/10/01 09:07:38;;;;;;;1.63;0.40;;;15.60;99.90;;;;;;4994197;28;20200;-75
2022/10/01 09:10:26;;;;;;;0.40;0.40;;;15.60;99.90;;;;;;4978271;28;20238;-75
2022/10/01 09:13:25;;;;;;;1.10;0.40;;;15.60;99.90;;;;;;4977931;28;20210;-75
2022/10/01 09:16:28;;;;;;;1.92;1.13;;;15.70;99.90;;;;;;4977759;28;20172;-77
2022/10/01 09:19:02;;;;;;;1.10;0.82;;;15.80;99.90;;;;;;4977633;28;20206;-76
2022/10/01 09:22:02;;;;;;;0.70;0.60;;;15.80;99.90;;;;;;4978277;28;20179;-75
2022/10/01 09:24:43;;;;;;;0.60;0.47;;;15.80;99.90;;;;;;4977836;28;20200;-76
2022/10/01 09:27:17;;;;;;;1.13;0.47;;;15.80;99.90;;;;;;4991078;28;20179;-75
2022/10/01 09:30:03;;;;;;;0.85;0.40;;;15.90;99.90;;;;;;4996783;28;20199;-75
2022/10/01 09:32:48;;;;;;;0.55;0.40;;;15.90;99.90;;;;;;4997088;28;20233;-76
2022/10/01 09:35:38;;;;;;;1.52;0.60;;;15.90;99.90;;;;;;4997231;28;20175;-76
2022/10/01 09:38:16;;;;;;;1.83;0.93;;;16.00;99.90;;;;;;4997440;28;20214;-74
2022/10/01 09:40:51;;;;;;;1.98;0.85;;;16.00;99.90;;;;;;4997256;28;20186;-75
2022/10/01 09:43:20;;;;;;;1.00;0.75;;;16.00;99.90;;;;;;4990917;28;20176;-76
2022/10/01 09:45:46;;;;;;;1.90;0.80;;;16.10;99.90;;;;;;4977627;28;20184;-75
2022/10/01 09:48:42;;;;;;;1.60;0.60;;;16.10;99.90;;;;;;4977671;28;20192;-75
2022/10/01 09:51:21;;;;;;;0.57;0.47;;;16.20;99.90;;;;;;4943886;28;20184;-76
2022/10/01 09:54:07;;;;;;;1.02;0.80;;;16.20;99.90;;;;;;4977465;28;20168;-74
2022/10/01 09:56:38;;;;;;;2.35;0.70;;;16.40;99.90;;;;;;4976689;28;20204;-77
2022/10/01 09:59:12;;;;;;;1.33;0.60;;;16.60;99.90;;;;;;4994099;28;20160;-74
2022/10/01 10:01:38;;;;;;;0.50;0.45;;;16.80;99.90;;;;;;4989982;28;20266;-71
2022/10/01 10:04:03;;;;;;;2.50;0.60;;;17.00;99.90;;;;;;5002153;28;20192;-75
2022/10/01 10:06:30;;;;;;;0.50;0.43;;;17.20;99.90;;;;;;4997327;28;20171;-77
2022/10/01 10:09:01;;;;;;;1.65;0.70;;;17.70;99.90;;;;;;4996938;28;20175;-73
2022/10/01 10:11:29;;;;;;;0.90;0.60;;;18.10;99.90;;;;;;4996668;28;20262;-77
2022/10/01 10:14:00;;;;;;;0.57;0.50;;;18.50;99.90;;;;;;4996517;28;20183;-76
2022/10/01 10:16:33;;;;;;;2.90;0.73;;;18.90;99.90;;;;;;4996472;28;20215;-77
2022/10/01 10:19:14;;;;;;;1.83;0.80;;;19.40;99.90;;;;;;4976884;28;20210;-77
2022/10/01 10:21:50;;;;;;;1.15;0.80;;;19.50;99.90;;;;;;4976126;28;20266;-77
2022/10/01 10:24:32;;;;;;;3.42;0.70;;;19.60;99.90;;;;;;4977295;28;20183;-74
2022/10/01 10:26:59;;;;;;;1.55;0.73;;;19.60;99.90;;;;;;4977063;28;20187;-75
2022/10/01 10:29:33;;;;;;;3.58;1.40;;;19.50;99.90;;;;;;4976648;28;20180;-76
2022/10/01 10:32:03;;;;;;;4.18;1.40;;;19.50;99.90;;;;;;4983356;28;20435;-77
2022/10/01 10:34:39;;;;;;;3.75;1.60;;;19.50;99.90;;;;;;4992810;28;20188;-77
2022/10/01 10:37:19;;;;;;;4.28;1.60;;;19.50;99.90;;;;;;4992396;28;20212;-77
2022/10/01 10:39:49;;;;;;;4.38;1.92;;;19.60;99.90;;;;;;4993462;28;20171;-76
2022/10/01 10:42:16;;;;;;;3.05;1.80;;;19.50;99.90;;;;;;4993554;28;20169;-76
2022/10/01 10:44:43;;;;;;;4.57;1.80;;;19.40;99.90;;;;;;4993569;28;20300;-75
2022/10/01 10:47:15;;;;;;;5.45;1.80;;;19.30;99.90;;;;;;4992375;28;20215;-77
2022/10/01 10:50:01;;;;;;;3.88;1.67;;;19.20;99.90;;;;;;4992870;28;20172;-77
2022/10/01 10:52:36;;;;;;;2.75;1.92;;;19.10;99.90;;;;;;4995482;28;20199;-76
2022/10/01 10:55:31;;;;;;;3.83;1.63;;;19.00;99.90;;;;;;5012190;28;20182;-76
2022/10/01 10:58:41;;;;;;;3.25;1.70;;;18.90;99.90;;;;;;4995693;28;20211;-77
2022/10/01 11:01:12;;;;;;;4.75;1.73;;;18.80;99.90;;;;;;4976886;28;20209;-71
2022/10/01 11:03:47;;;;;;;2.92;1.80;;;18.70;99.90;;;;;;5012178;28;20373;-74
2022/10/01 11:06:17;;;;;;;2.58;1.48;;;18.60;99.90;;;;;;5011630;28;20182;-71
2022/10/01 11:08:44;;;;;;;4.90;1.75;;;18.60;99.90;;;;;;4987002;28;20215;-75
2022/10/01 11:11:44;;;;;;;3.67;1.70;;;18.60;99.90;;;;;;4992129;28;20184;-75
2022/10/01 11:14:34;;;;;;;3.70;1.73;;;18.80;99.90;;;;;;4975646;28;20171;-77
2022/10/01 11:17:21;;;;;;;3.53;1.98;;;19.00;99.90;;;;;;4978419;28;20215;-73
2022/10/01 11:20:21;;;;;;;3.15;1.70;;;19.30;99.90;;;;;;5006181;28;20176;-71
2022/10/01 11:22:59;;;;;;;4.45;1.40;;;19.80;99.90;;;;;;4987496;28;20267;-72
2022/10/01 11:25:37;;;;;;;5.53;1.90;;;20.10;99.90;;;;;;4990708;28;20206;-77
2022/10/01 11:28:27;;;;;;;5.13;1.60;;;20.40;99.90;;;;;;4975897;28;20270;-78
2022/10/01 11:31:22;;;;;;;3.47;1.65;;;20.50;99.90;;;;;;4976346;28;20179;-76
2022/10/01 11:33:48;;;;;;;4.95;1.65;;;20.80;99.90;;;;;;4963594;28;20202;-77
2022/10/01 11:36:57;;;;;;;4.78;1.73;;;20.90;99.90;;;;;;4976948;28;20199;-76
2022/10/01 11:39:32;;;;;;;3.85;1.30;;;21.00;99.90;;;;;;4975787;28;20168;-77
2022/10/01 11:42:21;;;;;;;8.15;1.70;;;21.00;99.90;;;;;;4979885;28;20180;-77
2022/10/01 11:45:06;;;;;;;7.20;1.60;;;21.10;99.90;;;;;;4995094;28;20163;-76
2022/10/01 11:47:46;;;;;;;5.70;1.70;;;21.10;99.90;;;;;;4994733;28;20206;-76
2022/10/01 11:50:19;;;;;;;5.32;1.60;;;21.10;99.90;;;;;;4995870;28;20195;-77
2022/10/01 11:52:51;;;;;;;6.25;1.70;;;21.10;99.90;;;;;;4995935;28;20266;-77
2022/10/01 11:58:53;;;;;;;3.60;1.65;;;21.00;99.90;;;;;;4942016;28;20216;-78
2022/10/01 12:01:34;;;;;;;4.25;1.15;;;20.90;99.90;;;;;;4972329;28;20266;-76
2022/10/01 12:04:17;;;;;;;6.57;1.83;;;20.70;99.90;;;;;;4994372;28;20217;-78
2022/10/01 12:07:20;;;;;;;5.90;1.60;;;20.50;99.90;;;;;;4994942;28;20179;-77
2022/10/01 12:10:24;;;;;;;3.05;1.30;;;20.30;99.90;;;;;;4995069;28;20218;-75
2022/10/01 12:13:18;;;;;;;4.03;1.38;;;20.40;99.90;;;;;;4962391;28;20282;-75
2022/10/01 12:16:14;;;;;;;5.30;1.45;;;20.50;99.90;;;;;;4995467;28;20214;-74
2022/10/01 12:18:45;;;;;;;5.15;1.85;;;20.70;99.90;;;;;;4972591;28;20195;-76
2022/10/01 12:21:58;;;;;;;5.95;1.40;;;20.90;99.90;;;;;;4999236;28;20175;-74
2022/10/01 12:24:30;;;;;;;4.70;1.50;;;21.10;99.90;;;;;;4971782;28;20231;-73
2022/10/01 12:27:32;;;;;;;6.18;1.60;;;21.30;99.90;;;;;;4993594;28;20172;-75
2022/10/01 12:30:21;;;;;;;3.28;1.27;;;21.50;99.90;;;;;;4978715;28;20447;-73
2022/10/01 12:33:05;;;;;;;3.78;1.35;;;21.80;99.90;;;;;;4999891;28;20172;-73
2022/10/01 12:35:46;;;;;;;5.28;1.55;;;22.00;99.90;;;;;;5003485;28;20222;-75
2022/10/01 12:38:28;;;;;;;4.47;1.40;;;22.20;99.90;;;;;;5003946;28;20206;-75
2022/10/01 12:41:09;;;;;;;3.72;1.23;;;22.30;99.90;;;;;;5002936;28;20257;-75
2022/10/01 12:44:19;;;;;;;3.97;1.45;;;22.20;99.90;;;;;;5002226;28;20182;-74
2022/10/01 12:46:54;;;;;;;3.08;1.38;;;22.10;99.90;;;;;;4994016;28;20222;-73
2022/10/01 12:50:15;;;;;;;6.70;1.63;;;22.00;99.90;;;;;;5002897;28;20201;-75
2022/10/01 12:52:46;;;;;;;4.38;1.42;;;21.80;99.90;;;;;;4934240;29;20205;-74
2022/10/01 12:55:38;;;;;;;3.35;1.27;;;21.60;99.90;;;;;;4982390;28;20312;-72
2022/10/01 12:58:43;;;;;;;4.00;1.50;;;21.50;99.90;;;;;;5000400;28;20379;-72
2022/10/01 13:01:20;;;;;;;3.92;1.40;;;21.50;99.90;;;;;;4990417;28;20179;-74
2022/10/01 13:04:11;;;;;;;7.55;1.63;;;21.50;99.90;;;;;;5002476;28;20172;-73
2022/10/01 13:07:11;;;;;;;4.90;1.50;;;21.60;99.90;;;;;;5003155;28;20203;-72
2022/10/01 13:09:48;;;;;;;3.90;1.10;;;21.70;99.90;;;;;;5004338;28;20183;-73
2022/10/01 13:12:41;;;;;;;3.88;1.30;;;21.80;99.90;;;;;;5007158;28;20203;-73
2022/10/01 13:15:26;;;;;;;4.38;1.58;;;21.90;99.90;;;;;;5008262;28;20199;-72
2022/10/01 13:18:17;;;;;;;3.55;1.33;;;22.10;99.90;;;;;;5003135;28;20199;-73
2022/10/01 13:20:55;;;;;;;2.60;1.48;;;22.30;99.90;;;;;;5019745;28;20167;-72
2022/10/01 13:23:37;;;;;;;3.60;1.67;;;22.50;99.90;;;;;;5004912;28;20226;-72
2022/10/01 13:26:26;;;;;;;2.75;1.30;;;22.70;99.90;;;;;;4981947;28;20175;-74
2022/10/01 13:29:10;;;;;;;4.07;1.40;;;22.80;99.90;;;;;;4986183;28;20167;-74
2022/10/01 13:31:52;;;;;;;2.33;1.08;;;23.00;99.90;;;;;;4995018;28;20159;-76